sensor_id;sensor_type;location;lat;lon;timestamp;P1;P2;P0
77516;PMS7003;68414;53.946;27.634;2024-03-17T00:00:30;28.966667;26.916666;17.133333
77516;PMS7003;68414;53.946;27.634;2024-03-17T00:01:29;30.016666;27.733334;18.000000
77516;PMS7003;68414;53.946;27.634;2024-03-17T00:02:29;30.650000;28.033333;16.933332
77516;PMS7003;68414;53.946;27.634;2024-03-17T00:03:30;32.950001;30.650000;17.633333
77516;PMS7003;68414;53.946;27.634;2024-03-17T00:04:29;30.716667;28.966667;17.433332
77516;PMS7003;68414;53.946;27.634;2024-03-17T00:05:29;31.866667;28.250000;17.333334
77516;PMS7003;68414;53.946;27.634;2024-03-17T00:06:30;31.966667;28.200001;16.983334
77516;PMS7003;68414;53.946;27.634;2024-03-17T00:07:29;30.116667;27.500000;16.483334
77516;PMS7003;68414;53.946;27.634;2024-03-17T00:08:29;29.950001;28.466667;17.116667
77516;PMS7003;68414;53.946;27.634;2024-03-17T00:09:29;33.299999;29.716667;17.633333
77516;PMS7003;68414;53.946;27.634;2024-03-17T00:10:29;30.616667;27.816668;17.549999
77516;PMS7003;68414;53.946;27.634;2024-03-17T00:11:29;32.733334;28.650000;17.400000
77516;PMS7003;68414;53.946;27.634;2024-03-17T00:12:29;34.216667;30.816668;18.450001
77516;PMS7003;68414;53.946;27.634;2024-03-17T00:13:29;29.733334;27.000000;17.783333
77516;PMS7003;68414;53.946;27.634;2024-03-17T00:14:29;32.916668;30.650000;18.683332
77516;PMS7003;68414;53.946;27.634;2024-03-17T00:15:29;35.833332;30.366667;18.483334
77516;PMS7003;68414;53.946;27.634;2024-03-17T00:16:29;32.166668;28.850000;16.633333
77516;PMS7003;68414;53.946;27.634;2024-03-17T00:17:29;30.933332;29.250000;18.433332
77516;PMS7003;68414;53.946;27.634;2024-03-17T00:18:29;33.983334;29.883333;18.383333
77516;PMS7003;68414;53.946;27.634;2024-03-17T00:19:29;30.750000;28.183332;17.766666
77516;PMS7003;68414;53.946;27.634;2024-03-17T00:20:29;31.083334;28.450001;16.383333
77516;PMS7003;68414;53.946;27.634;2024-03-17T00:21:29;31.016666;28.316668;17.516666
77516;PMS7003;68414;53.946;27.634;2024-03-17T00:22:29;27.450001;26.666666;17.716667
77516;PMS7003;68414;53.946;27.634;2024-03-17T00:23:29;31.966667;28.549999;17.350000
77516;PMS7003;68414;53.946;27.634;2024-03-17T00:24:29;32.450001;28.616667;17.733334
77516;PMS7003;68414;53.946;27.634;2024-03-17T00:25:29;33.716667;30.883333;17.700001
77516;PMS7003;68414;53.946;27.634;2024-03-17T00:26:29;34.816666;30.916666;18.833334
77516;PMS7003;68414;53.946;27.634;2024-03-17T00:27:29;29.299999;28.400000;17.650000
77516;PMS7003;68414;53.946;27.634;2024-03-17T00:28:29;31.233334;28.016666;17.583334
77516;PMS7003;68414;53.946;27.634;2024-03-17T00:29:29;32.250000;28.299999;17.450001
77516;PMS7003;68414;53.946;27.634;2024-03-17T00:30:31;32.599998;28.799999;18.000000
77516;PMS7003;68414;53.946;27.634;2024-03-17T00:31:29;31.933332;28.216667;17.216667
77516;PMS7003;68414;53.946;27.634;2024-03-17T00:32:29;28.600000;25.700001;17.900000
77516;PMS7003;68414;53.946;27.634;2024-03-17T00:33:29;31.766666;28.266666;17.883333
77516;PMS7003;68414;53.946;27.634;2024-03-17T00:34:29;32.400002;29.633333;17.166666
77516;PMS7003;68414;53.946;27.634;2024-03-17T00:35:29;32.783333;29.600000;17.883333
77516;PMS7003;68414;53.946;27.634;2024-03-17T00:36:29;34.633335;30.600000;18.233334
77516;PMS7003;68414;53.946;27.634;2024-03-17T00:37:29;32.849998;30.150000;18.066668
77516;PMS7003;68414;53.946;27.634;2024-03-17T00:38:29;34.266666;29.600000;17.566668
77516;PMS7003;68414;53.946;27.634;2024-03-17T00:39:29;33.783333;29.683332;17.816668
77516;PMS7003;68414;53.946;27.634;2024-03-17T00:40:29;28.433332;26.366667;18.466667
77516;PMS7003;68414;53.946;27.634;2024-03-17T00:41:29;32.783333;29.366667;17.299999
77516;PMS7003;68414;53.946;27.634;2024-03-17T00:42:29;33.383335;29.900000;17.866667
77516;PMS7003;68414;53.946;27.634;2024-03-17T00:43:29;34.516666;30.933332;18.500000
77516;PMS7003;68414;53.946;27.634;2024-03-17T00:44:29;32.016666;29.100000;18.383333
77516;PMS7003;68414;53.946;27.634;2024-03-17T00:45:29;28.133333;26.466667;17.033333
77516;PMS7003;68414;53.946;27.634;2024-03-17T00:46:29;32.483334;28.683332;17.100000
77516;PMS7003;68414;53.946;27.634;2024-03-17T00:47:29;32.933334;29.350000;17.566668
77516;PMS7003;68414;53.946;27.634;2024-03-17T00:48:31;27.716667;26.616667;16.816668
77516;PMS7003;68414;53.946;27.634;2024-03-17T00:49:29;32.200001;29.383333;17.250000
77516;PMS7003;68414;53.946;27.634;2024-03-17T00:50:29;30.516666;27.833334;18.466667
77516;PMS7003;68414;53.946;27.634;2024-03-17T00:51:29;31.750000;29.333334;17.900000
77516;PMS7003;68414;53.946;27.634;2024-03-17T00:52:29;31.350000;28.183332;18.100000
77516;PMS7003;68414;53.946;27.634;2024-03-17T00:53:29;34.016666;30.433332;17.983334
77516;PMS7003;68414;53.946;27.634;2024-03-17T00:54:29;32.583332;29.450001;18.500000
77516;PMS7003;68414;53.946;27.634;2024-03-17T00:55:29;30.716667;28.350000;17.900000
77516;PMS7003;68414;53.946;27.634;2024-03-17T00:56:29;32.133335;29.716667;18.266666
77516;PMS7003;68414;53.946;27.634;2024-03-17T00:57:29;34.349998;29.750000;17.283333
77516;PMS7003;68414;53.946;27.634;2024-03-17T00:58:29;34.349998;30.233334;18.166666
77516;PMS7003;68414;53.946;27.634;2024-03-17T00:59:29;32.400002;31.133333;18.066668
77516;PMS7003;68414;53.946;27.634;2024-03-17T01:00:29;32.500000;29.049999;17.650000
77516;PMS7003;68414;53.946;27.634;2024-03-17T01:01:29;34.250000;30.516666;18.333334
77516;PMS7003;68414;53.946;27.634;2024-03-17T01:02:29;31.549999;28.500000;17.216667
77516;PMS7003;68414;53.946;27.634;2024-03-17T01:03:29;30.716667;28.116667;17.533333
77516;PMS7003;68414;53.946;27.634;2024-03-17T01:04:29;34.816666;30.066668;18.333334
77516;PMS7003;68414;53.946;27.634;2024-03-17T01:05:29;31.500000;29.416666;18.616667
77516;PMS7003;68414;53.946;27.634;2024-03-17T01:06:29;29.950001;27.100000;17.333334
77516;PMS7003;68414;53.946;27.634;2024-03-17T01:07:29;33.266666;29.483334;18.033333
77516;PMS7003;68414;53.946;27.634;2024-03-17T01:08:29;29.500000;27.883333;18.600000
77516;PMS7003;68414;53.946;27.634;2024-03-17T01:09:29;30.616667;28.933332;18.133333
77516;PMS7003;68414;53.946;27.634;2024-03-17T01:10:29;30.850000;28.116667;17.799999
77516;PMS7003;68414;53.946;27.634;2024-03-17T01:11:29;33.183334;29.216667;17.700001
77516;PMS7003;68414;53.946;27.634;2024-03-17T01:12:29;31.416666;27.450001;18.466667
77516;PMS7003;68414;53.946;27.634;2024-03-17T01:13:29;29.783333;27.616667;18.733334
77516;PMS7003;68414;53.946;27.634;2024-03-17T01:14:30;31.150000;28.549999;18.900000
77516;PMS7003;68414;53.946;27.634;2024-03-17T01:15:29;31.900000;28.233334;18.733334
77516;PMS7003;68414;53.946;27.634;2024-03-17T01:16:29;32.250000;29.716667;17.866667
77516;PMS7003;68414;53.946;27.634;2024-03-17T01:17:30;28.933332;27.049999;16.500000
77516;PMS7003;68414;53.946;27.634;2024-03-17T01:18:29;31.433332;28.833334;18.500000
77516;PMS7003;68414;53.946;27.634;2024-03-17T01:19:29;35.533333;30.783333;18.116667
77516;PMS7003;68414;53.946;27.634;2024-03-17T01:20:29;32.316666;30.350000;18.616667
77516;PMS7003;68414;53.946;27.634;2024-03-17T01:21:29;30.916666;28.000000;17.400000
77516;PMS7003;68414;53.946;27.634;2024-03-17T01:22:29;32.466667;30.066668;18.416666
77516;PMS7003;68414;53.946;27.634;2024-03-17T01:23:29;32.183334;28.833334;17.350000
77516;PMS7003;68414;53.946;27.634;2024-03-17T01:24:29;31.233334;28.833334;17.866667
77516;PMS7003;68414;53.946;27.634;2024-03-17T01:25:29;35.016666;31.283333;18.966667
77516;PMS7003;68414;53.946;27.634;2024-03-17T01:26:29;32.450001;29.799999;17.733334
77516;PMS7003;68414;53.946;27.634;2024-03-17T01:27:29;36.266666;30.866667;17.750000
77516;PMS7003;68414;53.946;27.634;2024-03-17T01:28:29;33.433334;29.950001;18.616667
77516;PMS7003;68414;53.946;27.634;2024-03-17T01:29:29;34.166668;30.633333;18.900000
77516;PMS7003;68414;53.946;27.634;2024-03-17T01:30:29;33.416668;30.166666;18.383333
77516;PMS7003;68414;53.946;27.634;2024-03-17T01:31:29;32.566666;29.549999;18.466667
77516;PMS7003;68414;53.946;27.634;2024-03-17T01:32:29;33.033333;29.783333;17.466667
77516;PMS7003;68414;53.946;27.634;2024-03-17T01:33:29;31.549999;30.216667;17.850000
77516;PMS7003;68414;53.946;27.634;2024-03-17T01:34:30;35.033333;29.933332;17.299999
77516;PMS7003;68414;53.946;27.634;2024-03-17T01:35:29;34.183334;29.583334;18.250000
77516;PMS7003;68414;53.946;27.634;2024-03-17T01:36:29;34.416668;29.766666;19.016666
77516;PMS7003;68414;53.946;27.634;2024-03-17T01:37:29;34.466667;29.233334;17.933332
77516;PMS7003;68414;53.946;27.634;2024-03-17T01:38:29;33.216667;29.700001;17.750000
77516;PMS7003;68414;53.946;27.634;2024-03-17T01:39:29;31.783333;28.950001;18.666666
77516;PMS7003;68414;53.946;27.634;2024-03-17T01:40:29;31.333334;28.466667;17.850000
77516;PMS7003;68414;53.946;27.634;2024-03-17T01:41:29;33.450001;29.133333;17.533333
77516;PMS7003;68414;53.946;27.634;2024-03-17T01:42:29;32.283333;29.200001;18.316668
77516;PMS7003;68414;53.946;27.634;2024-03-17T01:43:29;33.783333;31.049999;18.366667
77516;PMS7003;68414;53.946;27.634;2024-03-17T01:44:29;32.216667;29.116667;18.183332
77516;PMS7003;68414;53.946;27.634;2024-03-17T01:45:31;33.883335;29.933332;18.433332
77516;PMS7003;68414;53.946;27.634;2024-03-17T01:46:29;31.266666;28.666666;16.916666
77516;PMS7003;68414;53.946;27.634;2024-03-17T01:47:29;33.549999;29.683332;18.616667
77516;PMS7003;68414;53.946;27.634;2024-03-17T01:48:29;33.349998;30.299999;18.799999
77516;PMS7003;68414;53.946;27.634;2024-03-17T01:49:29;35.366665;29.916666;18.966667
77516;PMS7003;68414;53.946;27.634;2024-03-17T01:50:31;34.700001;30.366667;18.083334
77516;PMS7003;68414;53.946;27.634;2024-03-17T01:51:29;33.500000;29.400000;18.816668
77516;PMS7003;68414;53.946;27.634;2024-03-17T01:52:29;33.549999;30.600000;18.333334
77516;PMS7003;68414;53.946;27.634;2024-03-17T01:53:29;34.933334;31.433332;18.833334
77516;PMS7003;68414;53.946;27.634;2024-03-17T01:54:29;34.549999;30.716667;18.633333
77516;PMS7003;68414;53.946;27.634;2024-03-17T01:55:29;34.000000;30.799999;18.400000
77516;PMS7003;68414;53.946;27.634;2024-03-17T01:56:29;33.750000;29.250000;18.516666
77516;PMS7003;68414;53.946;27.634;2024-03-17T01:57:29;34.299999;30.450001;18.716667
77516;PMS7003;68414;53.946;27.634;2024-03-17T01:58:31;34.033333;30.350000;18.683332
77516;PMS7003;68414;53.946;27.634;2024-03-17T01:59:31;33.266666;30.616667;18.283333
77516;PMS7003;68414;53.946;27.634;2024-03-17T02:00:29;30.500000;28.799999;18.716667
77516;PMS7003;68414;53.946;27.634;2024-03-17T02:01:29;36.700001;32.783333;20.316668
77516;PMS7003;68414;53.946;27.634;2024-03-17T02:02:29;35.000000;30.666666;18.433332
77516;PMS7003;68414;53.946;27.634;2024-03-17T02:03:29;33.299999;29.283333;17.133333
77516;PMS7003;68414;53.946;27.634;2024-03-17T02:04:30;35.666668;30.466667;18.516666
77516;PMS7003;68414;53.946;27.634;2024-03-17T02:05:29;34.400002;30.833334;18.483334
77516;PMS7003;68414;53.946;27.634;2024-03-17T02:06:29;34.033333;30.733334;17.933332
77516;PMS7003;68414;53.946;27.634;2024-03-17T02:07:30;32.016666;29.350000;18.433332
77516;PMS7003;68414;53.946;27.634;2024-03-17T02:08:45;34.049999;30.266666;17.100000
77516;PMS7003;68414;53.946;27.634;2024-03-17T02:09:29;33.083332;29.033333;18.900000
77516;PMS7003;68414;53.946;27.634;2024-03-17T02:10:29;32.799999;29.850000;18.933332
77516;PMS7003;68414;53.946;27.634;2024-03-17T02:11:31;33.400002;30.133333;18.683332
77516;PMS7003;68414;53.946;27.634;2024-03-17T02:12:30;31.116667;29.100000;18.400000
77516;PMS7003;68414;53.946;27.634;2024-03-17T02:13:31;34.166668;31.483334;19.616667
77516;PMS7003;68414;53.946;27.634;2024-03-17T02:14:29;34.433334;30.416666;18.700001
77516;PMS7003;68414;53.946;27.634;2024-03-17T02:15:30;29.850000;26.833334;17.683332
77516;PMS7003;68414;53.946;27.634;2024-03-17T02:16:29;31.866667;29.100000;19.516666
77516;PMS7003;68414;53.946;27.634;2024-03-17T02:17:29;35.000000;31.066668;19.450001
77516;PMS7003;68414;53.946;27.634;2024-03-17T02:18:30;29.200001;27.416666;18.266666
77516;PMS7003;68414;53.946;27.634;2024-03-17T02:19:29;31.983334;29.900000;18.783333
77516;PMS7003;68414;53.946;27.634;2024-03-17T02:20:29;35.416668;31.283333;19.116667
77516;PMS7003;68414;53.946;27.634;2024-03-17T02:21:29;31.983334;29.216667;18.116667
77516;PMS7003;68414;53.946;27.634;2024-03-17T02:22:29;35.416668;30.783333;18.650000
77516;PMS7003;68414;53.946;27.634;2024-03-17T02:23:29;31.983334;29.483334;18.866667
77516;PMS7003;68414;53.946;27.634;2024-03-17T02:24:29;32.799999;27.850000;17.700001
77516;PMS7003;68414;53.946;27.634;2024-03-17T02:25:29;37.283333;32.000000;19.250000
77516;PMS7003;68414;53.946;27.634;2024-03-17T02:26:29;34.983334;30.733334;18.933332
77516;PMS7003;68414;53.946;27.634;2024-03-17T02:27:29;35.016666;31.083334;19.283333
77516;PMS7003;68414;53.946;27.634;2024-03-17T02:28:29;31.850000;28.366667;18.316668
77516;PMS7003;68414;53.946;27.634;2024-03-17T02:29:29;33.966667;30.033333;19.750000
77516;PMS7003;68414;53.946;27.634;2024-03-17T02:30:29;33.950001;31.200001;18.833334
77516;PMS7003;68414;53.946;27.634;2024-03-17T02:31:29;35.966667;31.083334;19.850000
77516;PMS7003;68414;53.946;27.634;2024-03-17T02:32:29;37.433334;33.033333;19.333334
77516;PMS7003;68414;53.946;27.634;2024-03-17T02:33:29;35.283333;31.000000;18.983334
77516;PMS7003;68414;53.946;27.634;2024-03-17T02:34:29;34.616665;30.500000;19.233334
77516;PMS7003;68414;53.946;27.634;2024-03-17T02:35:31;33.233334;30.250000;19.333334
77516;PMS7003;68414;53.946;27.634;2024-03-17T02:36:29;37.549999;32.933334;19.383333
77516;PMS7003;68414;53.946;27.634;2024-03-17T02:37:29;34.033333;30.916666;19.583334
77516;PMS7003;68414;53.946;27.634;2024-03-17T02:38:30;33.266666;30.016666;19.233334
77516;PMS7003;68414;53.946;27.634;2024-03-17T02:39:29;32.866665;30.283333;18.733334
77516;PMS7003;68414;53.946;27.634;2024-03-17T02:40:29;32.333332;28.799999;19.366667
77516;PMS7003;68414;53.946;27.634;2024-03-17T02:41:29;33.483334;30.566668;18.866667
77516;PMS7003;68414;53.946;27.634;2024-03-17T02:42:29;36.116665;31.850000;19.350000
77516;PMS7003;68414;53.946;27.634;2024-03-17T02:43:29;34.333332;30.933332;19.200001
77516;PMS7003;68414;53.946;27.634;2024-03-17T02:44:31;36.583332;31.450001;19.500000
77516;PMS7003;68414;53.946;27.634;2024-03-17T02:45:29;36.200001;31.833334;19.400000
77516;PMS7003;68414;53.946;27.634;2024-03-17T02:46:29;36.900002;31.783333;19.799999
77516;PMS7003;68414;53.946;27.634;2024-03-17T02:47:29;33.633335;31.066668;19.666666
77516;PMS7003;68414;53.946;27.634;2024-03-17T02:48:29;36.349998;32.549999;19.900000
77516;PMS7003;68414;53.946;27.634;2024-03-17T02:49:29;36.349998;31.933332;19.816668
77516;PMS7003;68414;53.946;27.634;2024-03-17T02:50:29;35.433334;31.866667;19.850000
77516;PMS7003;68414;53.946;27.634;2024-03-17T02:51:29;35.083332;31.700001;20.083334
77516;PMS7003;68414;53.946;27.634;2024-03-17T02:52:29;36.683334;32.700001;19.183332
77516;PMS7003;68414;53.946;27.634;2024-03-17T02:53:29;36.200001;32.066666;19.616667
77516;PMS7003;68414;53.946;27.634;2024-03-17T02:54:29;33.200001;29.350000;18.083334
77516;PMS7003;68414;53.946;27.634;2024-03-17T02:55:29;34.849998;31.066668;18.733334
77516;PMS7003;68414;53.946;27.634;2024-03-17T02:56:29;35.333332;30.483334;19.299999
77516;PMS7003;68414;53.946;27.634;2024-03-17T02:57:29;33.500000;29.866667;18.383333
77516;PMS7003;68414;53.946;27.634;2024-03-17T02:58:29;33.916668;29.750000;18.766666
77516;PMS7003;68414;53.946;27.634;2024-03-17T02:59:29;36.833332;31.916666;18.766666
77516;PMS7003;68414;53.946;27.634;2024-03-17T03:00:29;35.716667;32.099998;19.400000
77516;PMS7003;68414;53.946;27.634;2024-03-17T03:01:29;36.299999;32.216667;20.566668
77516;PMS7003;68414;53.946;27.634;2024-03-17T03:02:29;34.349998;31.116667;19.850000
77516;PMS7003;68414;53.946;27.634;2024-03-17T03:03:29;35.183334;31.799999;19.016666
77516;PMS7003;68414;53.946;27.634;2024-03-17T03:04:29;35.549999;32.516666;20.533333
77516;PMS7003;68414;53.946;27.634;2024-03-17T03:05:30;34.116665;30.900000;19.466667
77516;PMS7003;68414;53.946;27.634;2024-03-17T03:06:29;35.849998;31.583334;19.900000
77516;PMS7003;68414;53.946;27.634;2024-03-17T03:07:29;35.566666;31.150000;19.783333
77516;PMS7003;68414;53.946;27.634;2024-03-17T03:08:29;40.416668;32.283333;20.016666
77516;PMS7003;68414;53.946;27.634;2024-03-17T03:09:29;38.166668;33.299999;20.433332
77516;PMS7003;68414;53.946;27.634;2024-03-17T03:10:29;36.200001;32.916668;20.299999
77516;PMS7003;68414;53.946;27.634;2024-03-17T03:11:29;39.066666;34.033333;21.233334
77516;PMS7003;68414;53.946;27.634;2024-03-17T03:12:29;39.500000;33.833332;20.733334
77516;PMS7003;68414;53.946;27.634;2024-03-17T03:13:29;35.883335;31.650000;20.283333
77516;PMS7003;68414;53.946;27.634;2024-03-17T03:14:29;37.466667;31.966667;19.783333
77516;PMS7003;68414;53.946;27.634;2024-03-17T03:15:31;38.066666;32.349998;20.116667
77516;PMS7003;68414;53.946;27.634;2024-03-17T03:16:29;40.266666;34.216667;20.200001
77516;PMS7003;68414;53.946;27.634;2024-03-17T03:17:29;40.833332;34.200001;20.816668
77516;PMS7003;68414;53.946;27.634;2024-03-17T03:18:29;36.833332;32.883335;20.433332
77516;PMS7003;68414;53.946;27.634;2024-03-17T03:19:29;38.750000;33.250000;20.600000
77516;PMS7003;68414;53.946;27.634;2024-03-17T03:20:29;39.166668;32.416668;20.233334
77516;PMS7003;68414;53.946;27.634;2024-03-17T03:21:29;38.916668;33.049999;19.500000
77516;PMS7003;68414;53.946;27.634;2024-03-17T03:22:29;38.966667;32.683334;20.450001
77516;PMS7003;68414;53.946;27.634;2024-03-17T03:23:30;36.599998;32.500000;20.566668
77516;PMS7003;68414;53.946;27.634;2024-03-17T03:24:29;39.500000;33.666668;20.900000
77516;PMS7003;68414;53.946;27.634;2024-03-17T03:25:29;38.466667;32.316666;19.700001
77516;PMS7003;68414;53.946;27.634;2024-03-17T03:26:29;39.299999;33.633335;20.683332
77516;PMS7003;68414;53.946;27.634;2024-03-17T03:27:29;40.750000;34.466667;20.383333
77516;PMS7003;68414;53.946;27.634;2024-03-17T03:28:31;40.733334;35.049999;21.350000
77516;PMS7003;68414;53.946;27.634;2024-03-17T03:29:29;37.716667;33.616665;20.733334
77516;PMS7003;68414;53.946;27.634;2024-03-17T03:30:29;36.500000;32.533333;20.316668
77516;PMS7003;68414;53.946;27.634;2024-03-17T03:31:29;38.799999;33.266666;20.083334
77516;PMS7003;68414;53.946;27.634;2024-03-17T03:32:29;40.549999;33.366665;20.549999
77516;PMS7003;68414;53.946;27.634;2024-03-17T03:33:29;37.183334;32.316666;20.600000
77516;PMS7003;68414;53.946;27.634;2024-03-17T03:34:29;39.683334;32.116665;20.150000
77516;PMS7003;68414;53.946;27.634;2024-03-17T03:35:29;38.416668;33.416668;21.316668
77516;PMS7003;68414;53.946;27.634;2024-03-17T03:36:29;38.666668;33.900002;20.516666
77516;PMS7003;68414;53.946;27.634;2024-03-17T03:37:29;35.433334;31.299999;20.316668
77516;PMS7003;68414;53.946;27.634;2024-03-17T03:38:29;39.866665;33.666668;20.133333
77516;PMS7003;68414;53.946;27.634;2024-03-17T03:39:31;39.950001;34.900002;21.533333
77516;PMS7003;68414;53.946;27.634;2024-03-17T03:40:31;40.183334;33.733334;20.350000
77516;PMS7003;68414;53.946;27.634;2024-03-17T03:41:29;36.866665;32.200001;20.333334
77516;PMS7003;68414;53.946;27.634;2024-03-17T03:42:29;36.733334;32.033333;20.633333
77516;PMS7003;68414;53.946;27.634;2024-03-17T03:43:29;43.183334;35.333332;21.250000
77516;PMS7003;68414;53.946;27.634;2024-03-17T03:44:29;40.333332;33.849998;21.116667
77516;PMS7003;68414;53.946;27.634;2024-03-17T03:45:29;39.233334;34.133335;21.216667
77516;PMS7003;68414;53.946;27.634;2024-03-17T03:46:29;39.116665;33.900002;21.466667
77516;PMS7003;68414;53.946;27.634;2024-03-17T03:47:29;40.900002;34.000000;20.799999
77516;PMS7003;68414;53.946;27.634;2024-03-17T03:48:31;41.483334;34.700001;20.816668
77516;PMS7003;68414;53.946;27.634;2024-03-17T03:49:29;37.133335;32.616665;20.633333
77516;PMS7003;68414;53.946;27.634;2024-03-17T03:50:30;39.316666;33.900002;21.166666
77516;PMS7003;68414;53.946;27.634;2024-03-17T03:51:30;40.833332;34.349998;22.000000
77516;PMS7003;68414;53.946;27.634;2024-03-17T03:52:29;42.233334;35.049999;22.083334
77516;PMS7003;68414;53.946;27.634;2024-03-17T03:53:30;41.349998;35.299999;21.666666
77516;PMS7003;68414;53.946;27.634;2024-03-17T03:54:29;43.599998;36.066666;21.850000
77516;PMS7003;68414;53.946;27.634;2024-03-17T03:55:29;44.700001;36.516666;21.549999
77516;PMS7003;68414;53.946;27.634;2024-03-17T03:56:29;39.500000;33.950001;20.883333
77516;PMS7003;68414;53.946;27.634;2024-03-17T03:57:29;40.750000;34.750000;21.566668
77516;PMS7003;68414;53.946;27.634;2024-03-17T03:58:29;41.200001;34.150002;20.983334
77516;PMS7003;68414;53.946;27.634;2024-03-17T03:59:29;39.983334;34.733334;21.466667
77516;PMS7003;68414;53.946;27.634;2024-03-17T04:00:29;40.316666;34.333332;21.066668
77516;PMS7003;68414;53.946;27.634;2024-03-17T04:01:29;39.416668;34.366665;21.216667
77516;PMS7003;68414;53.946;27.634;2024-03-17T04:02:29;39.299999;33.766666;20.700001
77516;PMS7003;68414;53.946;27.634;2024-03-17T04:03:29;40.966667;33.383335;21.083334
77516;PMS7003;68414;53.946;27.634;2024-03-17T04:04:29;41.633335;35.183334;21.299999
77516;PMS7003;68414;53.946;27.634;2024-03-17T04:05:29;40.416668;34.849998;21.633333
77516;PMS7003;68414;53.946;27.634;2024-03-17T04:06:29;38.833332;33.700001;20.483334
77516;PMS7003;68414;53.946;27.634;2024-03-17T04:07:29;44.000000;36.000000;21.549999
77516;PMS7003;68414;53.946;27.634;2024-03-17T04:08:29;44.349998;36.099998;21.683332
77516;PMS7003;68414;53.946;27.634;2024-03-17T04:09:29;42.016666;34.900002;21.783333
77516;PMS7003;68414;53.946;27.634;2024-03-17T04:10:29;45.450001;37.549999;22.183332
77516;PMS7003;68414;53.946;27.634;2024-03-17T04:11:29;39.049999;33.833332;21.566668
77516;PMS7003;68414;53.946;27.634;2024-03-17T04:12:29;42.049999;35.266666;21.516666
77516;PMS7003;68414;53.946;27.634;2024-03-17T04:13:29;42.783333;35.533333;21.600000
77516;PMS7003;68414;53.946;27.634;2024-03-17T04:14:29;40.099998;34.183334;21.799999
77516;PMS7003;68414;53.946;27.634;2024-03-17T04:15:29;40.150002;34.566666;21.466667
77516;PMS7003;68414;53.946;27.634;2024-03-17T04:16:29;42.016666;35.016666;22.150000
77516;PMS7003;68414;53.946;27.634;2024-03-17T04:17:29;38.849998;34.166668;22.049999
77516;PMS7003;68414;53.946;27.634;2024-03-17T04:18:29;45.383335;36.750000;22.133333
77516;PMS7003;68414;53.946;27.634;2024-03-17T04:19:29;42.916668;36.683334;21.983334
77516;PMS7003;68414;53.946;27.634;2024-03-17T04:20:29;44.083332;37.016666;21.866667
77516;PMS7003;68414;53.946;27.634;2024-03-17T04:21:29;43.283333;35.250000;21.549999
77516;PMS7003;68414;53.946;27.634;2024-03-17T04:22:29;38.799999;32.900002;21.333334
77516;PMS7003;68414;53.946;27.634;2024-03-17T04:23:29;43.516666;36.233334;21.750000
77516;PMS7003;68414;53.946;27.634;2024-03-17T04:24:29;42.833332;36.266666;21.850000
77516;PMS7003;68414;53.946;27.634;2024-03-17T04:25:29;41.383335;34.849998;21.900000
77516;PMS7003;68414;53.946;27.634;2024-03-17T04:26:29;41.516666;34.866665;21.750000
77516;PMS7003;68414;53.946;27.634;2024-03-17T04:27:29;43.150002;36.983334;21.516666
77516;PMS7003;68414;53.946;27.634;2024-03-17T04:28:29;42.900002;35.966667;22.200001
77516;PMS7003;68414;53.946;27.634;2024-03-17T04:29:29;41.816666;35.700001;21.799999
77516;PMS7003;68414;53.946;27.634;2024-03-17T04:30:29;45.450001;37.733334;22.200001
77516;PMS7003;68414;53.946;27.634;2024-03-17T04:31:31;43.533333;36.799999;22.083334
77516;PMS7003;68414;53.946;27.634;2024-03-17T04:32:29;43.883335;35.916668;22.466667
77516;PMS7003;68414;53.946;27.634;2024-03-17T04:33:29;45.283333;37.299999;21.783333
77516;PMS7003;68414;53.946;27.634;2024-03-17T04:34:29;42.116665;35.733334;21.533333
77516;PMS7003;68414;53.946;27.634;2024-03-17T04:35:29;45.150002;36.533333;21.566668
77516;PMS7003;68414;53.946;27.634;2024-03-17T04:36:29;45.183334;37.116665;22.283333
77516;PMS7003;68414;53.946;27.634;2024-03-17T04:37:29;43.200001;36.250000;22.283333
77516;PMS7003;68414;53.946;27.634;2024-03-17T04:38:29;42.700001;35.466667;21.350000
77516;PMS7003;68414;53.946;27.634;2024-03-17T04:39:30;45.583332;36.816666;21.483334
77516;PMS7003;68414;53.946;27.634;2024-03-17T04:40:29;44.950001;37.816666;21.966667
77516;PMS7003;68414;53.946;27.634;2024-03-17T04:41:30;43.450001;37.049999;22.516666
77516;PMS7003;68414;53.946;27.634;2024-03-17T04:42:29;43.966667;36.583332;22.166666
77516;PMS7003;68414;53.946;27.634;2024-03-17T04:43:29;41.983334;35.799999;21.900000
77516;PMS7003;68414;53.946;27.634;2024-03-17T04:44:29;45.383335;37.216667;21.916666